sensor_id;sensor_type;location;lat;lon;timestamp;P1;durP1;ratioP1;P2;durP2;ratioP2
71395;SDS011;59888;55.814;37.132;2022-09-16T00:01:35;11.40;;;6.88;;
71395;SDS011;59888;55.814;37.132;2022-09-16T00:04:01;10.48;;;6.85;;
71395;SDS011;59888;55.814;37.132;2022-09-16T00:06:27;10.80;;;6.90;;
71395;SDS011;59888;55.814;37.132;2022-09-16T00:08:57;10.18;;;6.50;;
71395;SDS011;59888;55.814;37.132;2022-09-16T00:11:27;11.13;;;7.00;;
71395;SDS011;59888;55.814;37.132;2022-09-16T00:13:58;11.98;;;6.95;;
71395;SDS011;59888;55.814;37.132;2022-09-16T00:16:24;10.43;;;6.78;;
71395;SDS011;59888;55.814;37.132;2022-09-16T00:18:57;9.82;;;7.00;;
71395;SDS011;59888;55.814;37.132;2022-09-16T00:21:26;9.55;;;6.20;;
71395;SDS011;59888;55.814;37.132;2022-09-16T00:23:52;10.27;;;6.03;;
71395;SDS011;59888;55.814;37.132;2022-09-16T00:26:20;9.82;;;6.25;;
71395;SDS011;59888;55.814;37.132;2022-09-16T00:28:49;11.27;;;6.55;;
71395;SDS011;59888;55.814;37.132;2022-09-16T00:31:15;11.73;;;6.47;;
71395;SDS011;59888;55.814;37.132;2022-09-16T00:33:41;7.57;;;5.15;;
71395;SDS011;59888;55.814;37.132;2022-09-16T00:36:12;8.07;;;5.53;;
71395;SDS011;59888;55.814;37.132;2022-09-16T00:38:40;10.43;;;6.43;;
71395;SDS011;59888;55.814;37.132;2022-09-16T00:41:06;7.95;;;5.63;;
71395;SDS011;59888;55.814;37.132;2022-09-16T00:43:47;9.82;;;6.22;;
71395;SDS011;59888;55.814;37.132;2022-09-16T00:46:14;10.45;;;6.25;;
71395;SDS011;59888;55.814;37.132;2022-09-16T00:48:42;11.68;;;7.03;;
71395;SDS011;59888;55.814;37.132;2022-09-16T00:51:08;12.32;;;6.43;;
71395;SDS011;59888;55.814;37.132;2022-09-16T00:53:41;8.68;;;5.88;;
71395;SDS011;59888;55.814;37.132;2022-09-16T00:56:13;9.45;;;6.78;;
71395;SDS011;59888;55.814;37.132;2022-09-16T00:58:45;9.35;;;6.68;;
71395;SDS011;59888;55.814;37.132;2022-09-16T01:01:13;8.98;;;6.47;;
71395;SDS011;59888;55.814;37.132;2022-09-16T01:03:41;9.68;;;6.47;;
71395;SDS011;59888;55.814;37.132;2022-09-16T01:06:11;11.15;;;6.63;;
71395;SDS011;59888;55.814;37.132;2022-09-16T01:08:39;11.55;;;6.55;;
71395;SDS011;59888;55.814;37.132;2022-09-16T01:11:07;10.90;;;6.75;;
71395;SDS011;59888;55.814;37.132;2022-09-16T01:13:33;10.02;;;6.35;;
71395;SDS011;59888;55.814;37.132;2022-09-16T01:22:00;11.00;;;6.82;;
71395;SDS011;59888;55.814;37.132;2022-09-16T01:44:10;10.18;;;6.03;;
71395;SDS011;59888;55.814;37.132;2022-09-16T01:46:43;9.32;;;6.30;;
71395;SDS011;59888;55.814;37.132;2022-09-16T01:52:19;11.63;;;6.43;;
71395;SDS011;59888;55.814;37.132;2022-09-16T01:54:58;12.65;;;6.75;;
71395;SDS011;59888;55.814;37.132;2022-09-16T02:00:21;8.88;;;6.40;;
71395;SDS011;59888;55.814;37.132;2022-09-16T02:08:01;11.45;;;6.90;;
71395;SDS011;59888;55.814;37.132;2022-09-16T02:10:32;14.50;;;7.07;;
71395;SDS011;59888;55.814;37.132;2022-09-16T02:13:04;12.23;;;6.53;;
71395;SDS011;59888;55.814;37.132;2022-09-16T02:15:36;12.27;;;6.82;;
71395;SDS011;59888;55.814;37.132;2022-09-16T02:18:08;10.30;;;6.38;;
71395;SDS011;59888;55.814;37.132;2022-09-16T02:20:38;13.77;;;7.47;;
71395;SDS011;59888;55.814;37.132;2022-09-16T02:23:09;11.05;;;6.68;;
71395;SDS011;59888;55.814;37.132;2022-09-16T02:25:40;10.68;;;6.60;;
71395;SDS011;59888;55.814;37.132;2022-09-16T02:28:09;11.23;;;6.72;;
71395;SDS011;59888;55.814;37.132;2022-09-16T02:30:44;11.43;;;7.15;;
71395;SDS011;59888;55.814;37.132;2022-09-16T02:33:14;13.80;;;7.47;;
71395;SDS011;59888;55.814;37.132;2022-09-16T02:35:42;12.35;;;7.13;;
71395;SDS011;59888;55.814;37.132;2022-09-16T02:38:25;11.65;;;7.60;;
71395;SDS011;59888;55.814;37.132;2022-09-16T02:40:57;11.18;;;7.55;;
71395;SDS011;59888;55.814;37.132;2022-09-16T02:43:25;12.80;;;7.25;;
71395;SDS011;59888;55.814;37.132;2022-09-16T02:46:15;13.23;;;7.32;;
71395;SDS011;59888;55.814;37.132;2022-09-16T02:52:02;11.35;;;7.00;;
71395;SDS011;59888;55.814;37.132;2022-09-16T02:54:50;11.30;;;7.18;;
71395;SDS011;59888;55.814;37.132;2022-09-16T02:57:39;14.50;;;7.75;;
71395;SDS011;59888;55.814;37.132;2022-09-16T03:00:06;13.88;;;7.18;;
71395;SDS011;59888;55.814;37.132;2022-09-16T03:02:33;10.38;;;7.00;;
71395;SDS011;59888;55.814;37.132;2022-09-16T03:05:00;13.02;;;7.65;;
71395;SDS011;59888;55.814;37.132;2022-09-16T03:07:28;13.35;;;7.22;;
71395;SDS011;59888;55.814;37.132;2022-09-16T03:09:54;11.38;;;7.22;;
71395;SDS011;59888;55.814;37.132;2022-09-16T03:20:49;11.88;;;7.00;;
71395;SDS011;59888;55.814;37.132;2022-09-16T03:37:09;12.80;;;7.72;;
71395;SDS011;59888;55.814;37.132;2022-09-16T03:39:39;12.35;;;7.22;;
71395;SDS011;59888;55.814;37.132;2022-09-16T03:42:06;11.90;;;7.43;;
71395;SDS011;59888;55.814;37.132;2022-09-16T03:44:36;13.85;;;7.75;;
71395;SDS011;59888;55.814;37.132;2022-09-16T03:47:07;13.32;;;8.05;;
71395;SDS011;59888;55.814;37.132;2022-09-16T03:49:33;16.17;;;7.60;;
71395;SDS011;59888;55.814;37.132;2022-09-16T03:51:59;11.60;;;7.20;;
71395;SDS011;59888;55.814;37.132;2022-09-16T03:54:26;12.85;;;7.20;;
71395;SDS011;59888;55.814;37.132;2022-09-16T03:56:52;13.52;;;7.82;;
71395;SDS011;59888;55.814;37.132;2022-09-16T03:59:18;13.20;;;7.43;;
71395;SDS011;59888;55.814;37.132;2022-09-16T04:01:43;11.65;;;7.25;;
71395;SDS011;59888;55.814;37.132;2022-09-16T04:04:09;13.60;;;7.05;;
71395;SDS011;59888;55.814;37.132;2022-09-16T04:06:36;12.68;;;7.38;;
71395;SDS011;59888;55.814;37.132;2022-09-16T04:09:03;10.20;;;7.05;;
71395;SDS011;59888;55.814;37.132;2022-09-16T04:11:30;11.80;;;7.55;;
71395;SDS011;59888;55.814;37.132;2022-09-16T04:13:56;11.48;;;7.15;;
71395;SDS011;59888;55.814;37.132;2022-09-16T04:16:23;12.80;;;7.35;;
71395;SDS011;59888;55.814;37.132;2022-09-16T04:18:49;11.95;;;7.00;;
71395;SDS011;59888;55.814;37.132;2022-09-16T04:21:15;10.65;;;7.20;;
71395;SDS011;59888;55.814;37.132;2022-09-16T04:23:41;13.27;;;6.75;;
71395;SDS011;59888;55.814;37.132;2022-09-16T04:26:08;12.73;;;7.03;;
71395;SDS011;59888;55.814;37.132;2022-09-16T04:28:34;13.23;;;7.55;;
71395;SDS011;59888;55.814;37.132;2022-09-16T04:31:01;13.57;;;7.80;;
71395;SDS011;59888;55.814;37.132;2022-09-16T04:33:28;11.93;;;7.18;;
71395;SDS011;59888;55.814;37.132;2022-09-16T04:36:12;11.60;;;7.07;;
71395;SDS011;59888;55.814;37.132;2022-09-16T04:38:40;10.07;;;6.55;;
71395;SDS011;59888;55.814;37.132;2022-09-16T04:41:12;11.68;;;7.32;;
71395;SDS011;59888;55.814;37.132;2022-09-16T04:43:51;12.07;;;6.70;;
71395;SDS011;59888;55.814;37.132;2022-09-16T04:46:20;13.40;;;7.28;;
71395;SDS011;59888;55.814;37.132;2022-09-16T04:48:47;12.40;;;6.45;;
71395;SDS011;59888;55.814;37.132;2022-09-16T04:51:14;10.93;;;6.72;;
71395;SDS011;59888;55.814;37.132;2022-09-16T04:53:41;11.05;;;7.25;;
71395;SDS011;59888;55.814;37.132;2022-09-16T04:56:14;10.40;;;7.03;;
71395;SDS011;59888;55.814;37.132;2022-09-16T04:58:48;13.43;;;7.38;;
71395;SDS011;59888;55.814;37.132;2022-09-16T05:01:17;10.75;;;6.88;;
71395;SDS011;59888;55.814;37.132;2022-09-16T05:03:49;11.90;;;6.80;;
71395;SDS011;59888;55.814;37.132;2022-09-16T05:06:20;10.25;;;6.45;;
71395;SDS011;59888;55.814;37.132;2022-09-16T05:08:48;13.82;;;7.30;;
71395;SDS011;59888;55.814;37.132;2022-09-16T05:11:16;10.48;;;6.78;;
71395;SDS011;59888;55.814;37.132;2022-09-16T05:13:43;11.82;;;7.25;;
71395;SDS011;59888;55.814;37.132;2022-09-16T05:16:10;13.55;;;7.07;;
71395;SDS011;59888;55.814;37.132;2022-09-16T05:18:39;12.05;;;7.53;;
71395;SDS011;59888;55.814;37.132;2022-09-16T05:21:07;13.13;;;7.38;;
71395;SDS011;59888;55.814;37.132;2022-09-16T05:23:35;10.70;;;6.80;;
71395;SDS011;59888;55.814;37.132;2022-09-16T05:26:03;11.38;;;7.80;;
71395;SDS011;59888;55.814;37.132;2022-09-16T05:28:31;10.48;;;6.43;;
71395;SDS011;59888;55.814;37.132;2022-09-16T05:31:17;13.52;;;7.75;;
71395;SDS011;59888;55.814;37.132;2022-09-16T05:33:45;12.18;;;7.10;;
71395;SDS011;59888;55.814;37.132;2022-09-16T05:36:18;13.63;;;8.00;;
71395;SDS011;59888;55.814;37.132;2022-09-16T05:38:44;11.02;;;7.53;;
71395;SDS011;59888;55.814;37.132;2022-09-16T05:41:10;10.82;;;6.80;;
71395;SDS011;59888;55.814;37.132;2022-09-16T05:43:36;14.43;;;7.63;;
71395;SDS011;59888;55.814;37.132;2022-09-16T05:46:03;12.48;;;7.20;;
71395;SDS011;59888;55.814;37.132;2022-09-16T05:48:30;13.57;;;7.80;;
71395;SDS011;59888;55.814;37.132;2022-09-16T05:51:00;14.40;;;7.57;;
71395;SDS011;59888;55.814;37.132;2022-09-16T05:53:27;11.25;;;7.20;;
71395;SDS011;59888;55.814;37.132;2022-09-16T05:58:23;14.25;;;7.95;;
71395;SDS011;59888;55.814;37.132;2022-09-16T06:00:50;13.80;;;7.53;;
71395;SDS011;59888;55.814;37.132;2022-09-16T06:03:16;13.85;;;7.35;;
71395;SDS011;59888;55.814;37.132;2022-09-16T06:05:42;14.48;;;7.78;;
71395;SDS011;59888;55.814;37.132;2022-09-16T06:08:08;12.00;;;7.50;;
71395;SDS011;59888;55.814;37.132;2022-09-16T06:10:38;14.75;;;7.95;;
71395;SDS011;59888;55.814;37.132;2022-09-16T06:13:04;12.02;;;7.93;;
71395;SDS011;59888;55.814;37.132;2022-09-16T06:15:30;11.20;;;7.85;;
71395;SDS011;59888;55.814;37.132;2022-09-16T06:17:56;10.80;;;7.25;;
71395;SDS011;59888;55.814;37.132;2022-09-16T06:20:22;13.10;;;7.68;;
71395;SDS011;59888;55.814;37.132;2022-09-16T06:22:49;10.43;;;7.45;;
71395;SDS011;59888;55.814;37.132;2022-09-16T06:25:15;10.57;;;7.15;;
71395;SDS011;59888;55.814;37.132;2022-09-16T06:27:41;15.70;;;8.05;;
71395;SDS011;59888;55.814;37.132;2022-09-16T06:30:07;14.15;;;8.35;;
71395;SDS011;59888;55.814;37.132;2022-09-16T06:32:33;13.27;;;8.18;;
71395;SDS011;59888;55.814;37.132;2022-09-16T06:34:59;11.70;;;8.05;;
71395;SDS011;59888;55.814;37.132;2022-09-16T06:37:24;13.48;;;8.20;;
71395;SDS011;59888;55.814;37.132;2022-09-16T06:39:50;14.98;;;7.60;;
71395;SDS011;59888;55.814;37.132;2022-09-16T06:42:16;12.48;;;7.55;;
71395;SDS011;59888;55.814;37.132;2022-09-16T06:44:42;13.25;;;7.97;;
71395;SDS011;59888;55.814;37.132;2022-09-16T06:47:08;14.48;;;8.68;;
71395;SDS011;59888;55.814;37.132;2022-09-16T06:49:34;14.15;;;8.48;;
71395;SDS011;59888;55.814;37.132;2022-09-16T06:52:00;15.07;;;8.13;;
71395;SDS011;59888;55.814;37.132;2022-09-16T06:54:26;15.40;;;8.05;;
71395;SDS011;59888;55.814;37.132;2022-09-16T06:56:52;12.30;;;8.05;;
71395;SDS011;59888;55.814;37.132;2022-09-16T06:59:18;13.13;;;8.27;;
71395;SDS011;59888;55.814;37.132;2022-09-16T07:01:43;14.60;;;8.68;;
71395;SDS011;59888;55.814;37.132;2022-09-16T07:04:09;14.15;;;8.45;;
71395;SDS011;59888;55.814;37.132;2022-09-16T07:06:37;15.20;;;8.77;;
71395;SDS011;59888;55.814;37.132;2022-09-16T07:09:04;13.35;;;8.23;;
71395;SDS011;59888;55.814;37.132;2022-09-16T07:11:30;17.27;;;8.50;;
71395;SDS011;59888;55.814;37.132;2022-09-16T07:13:57;13.25;;;7.55;;
71395;SDS011;59888;55.814;37.132;2022-09-16T07:16:24;15.45;;;8.60;;
71395;SDS011;59888;55.814;37.132;2022-09-16T07:18:51;13.30;;;8.90;;
71395;SDS011;59888;55.814;37.132;2022-09-16T07:21:22;11.40;;;8.00;;
71395;SDS011;59888;55.814;37.132;2022-09-16T07:23:55;12.07;;;8.18;;
71395;SDS011;59888;55.814;37.132;2022-09-16T07:26:23;12.95;;;8.18;;
71395;SDS011;59888;55.814;37.132;2022-09-16T07:28:54;14.65;;;8.95;;
71395;SDS011;59888;55.814;37.132;2022-09-16T07:31:26;13.65;;;8.75;;
71395;SDS011;59888;55.814;37.132;2022-09-16T07:33:54;14.02;;;8.18;;
71395;SDS011;59888;55.814;37.132;2022-09-16T07:36:25;14.32;;;8.70;;
71395;SDS011;59888;55.814;37.132;2022-09-16T07:38:53;12.98;;;8.35;;
71395;SDS011;59888;55.814;37.132;2022-09-16T07:41:22;12.70;;;8.30;;
71395;SDS011;59888;55.814;37.132;2022-09-16T07:43:51;14.38;;;8.50;;
71395;SDS011;59888;55.814;37.132;2022-09-16T07:46:18;12.40;;;8.23;;
71395;SDS011;59888;55.814;37.132;2022-09-16T07:48:45;11.50;;;7.47;;
71395;SDS011;59888;55.814;37.132;2022-09-16T07:51:14;13.20;;;8.45;;
71395;SDS011;59888;55.814;37.132;2022-09-16T07:53:44;13.30;;;8.07;;
71395;SDS011;59888;55.814;37.132;2022-09-16T07:56:12;12.40;;;7.95;;
71395;SDS011;59888;55.814;37.132;2022-09-16T07:58:43;14.77;;;8.52;;
71395;SDS011;59888;55.814;37.132;2022-09-16T08:01:10;12.25;;;8.10;;
71395;SDS011;59888;55.814;37.132;2022-09-16T08:03:38;13.23;;;8.98;;
71395;SDS011;59888;55.814;37.132;2022-09-16T08:06:08;13.23;;;9.05;;
71395;SDS011;59888;55.814;37.132;2022-09-16T08:08:37;13.93;;;8.85;;
71395;SDS011;59888;55.814;37.132;2022-09-16T08:11:03;12.93;;;8.35;;
71395;SDS011;59888;55.814;37.132;2022-09-16T08:13:29;12.38;;;8.15;;
71395;SDS011;59888;55.814;37.132;2022-09-16T08:16:03;14.35;;;8.40;;
71395;SDS011;59888;55.814;37.132;2022-09-16T08:18:31;12.90;;;8.90;;
71395;SDS011;59888;55.814;37.132;2022-09-16T08:20:57;14.35;;;9.00;;
71395;SDS011;59888;55.814;37.132;2022-09-16T08:23:28;15.15;;;9.30;;
71395;SDS011;59888;55.814;37.132;2022-09-16T08:25:58;13.70;;;8.85;;
71395;SDS011;59888;55.814;37.132;2022-09-16T08:28:25;12.48;;;8.43;;
71395;SDS011;59888;55.814;37.132;2022-09-16T08:30:52;14.68;;;8.88;;
71395;SDS011;59888;55.814;37.132;2022-09-16T08:33:19;11.75;;;8.40;;
71395;SDS011;59888;55.814;37.132;2022-09-16T08:35:56;13.88;;;8.65;;
71395;SDS011;59888;55.814;37.132;2022-09-16T08:38:26;12.20;;;8.70;;
71395;SDS011;59888;55.814;37.132;2022-09-16T08:40:55;13.43;;;9.18;;
71395;SDS011;59888;55.814;37.132;2022-09-16T08:49:15;14.23;;;8.45;;
71395;SDS011;59888;55.814;37.132;2022-09-16T08:51:45;12.00;;;8.20;;
71395;SDS011;59888;55.814;37.132;2022-09-16T08:54:27;13.77;;;7.97;;
71395;SDS011;59888;55.814;37.132;2022-09-16T08:57:29;11.65;;;7.85;;
71395;SDS011;59888;55.814;37.132;2022-09-16T09:00:15;12.60;;;8.23;;
71395;SDS011;59888;55.814;37.132;2022-09-16T09:02:49;11.57;;;7.97;;
71395;SDS011;59888;55.814;37.132;2022-09-16T09:05:52;16.52;;;8.80;;
71395;SDS011;59888;55.814;37.132;2022-09-16T09:14:08;12.13;;;7.95;;
71395;SDS011;59888;55.814;37.132;2022-09-16T09:19:44;13.27;;;8.65;;
71395;SDS011;59888;55.814;37.132;2022-09-16T09:25:24;9.30;;;6.53;;
71395;SDS011;59888;55.814;37.132;2022-09-16T09:33:39;11.50;;;6.28;;
71395;SDS011;59888;55.814;37.132;2022-09-16T09:41:56;14.70;;;6.68;;
71395;SDS011;59888;55.814;37.132;2022-09-16T09:46:53;13.02;;;6.47;;
71395;SDS011;59888;55.814;37.132;2022-09-16T09:54:30;10.52;;;6.15;;
71395;SDS011;59888;55.814;37.132;2022-09-16T09:57:02;11.30;;;6.03;;
71395;SDS011;59888;55.814;37.132;2022-09-16T09:59:40;10.30;;;6.43;;
71395;SDS011;59888;55.814;37.132;2022-09-16T10:02:22;9.55;;;5.68;;
71395;SDS011;59888;55.814;37.132;2022-09-16T10:04:48;11.13;;;5.63;;
71395;SDS011;59888;55.814;37.132;2022-09-16T10:07:16;8.93;;;5.57;;
71395;SDS011;59888;55.814;37.132;2022-09-16T10:10:11;8.38;;;5.38;;
71395;SDS011;59888;55.814;37.132;2022-09-16T10:12:39;7.50;;;5.50;;
71395;SDS011;59888;55.814;37.132;2022-09-16T10:15:05;9.57;;;5.55;;
71395;SDS011;59888;55.814;37.132;2022-09-16T10:17:55;8.63;;;5.80;;
71395;SDS011;59888;55.814;37.132;2022-09-16T10:25:33;9.10;;;5.38;;
71395;SDS011;59888;55.814;37.132;2022-09-16T10:28:00;8.13;;;5.72;;
71395;SDS011;59888;55.814;37.132;2022-09-16T10:30:47;8.38;;;5.70;;
71395;SDS011;59888;55.814;37.132;2022-09-16T10:35:50;12.82;;;6.30;;
71395;SDS011;59888;55.814;37.132;2022-09-16T10:38:21;13.50;;;7.15;;
71395;SDS011;59888;55.814;37.132;2022-09-16T10:40:58;12.13;;;6.10;;
71395;SDS011;59888;55.814;37.132;2022-09-16T10:43:30;13.05;;;6.50;;
71395;SDS011;59888;55.814;37.132;2022-09-16T10:45:56;9.60;;;6.82;;
71395;SDS011;59888;55.814;37.132;2022-09-16T10:48:27;12.05;;;6.97;;
71395;SDS011;59888;55.814;37.132;2022-09-16T10:50:56;11.30;;;6.53;;
71395;SDS011;59888;55.814;37.132;2022-09-16T10:56:02;12.15;;;7.50;;
71395;SDS011;59888;55.814;37.132;2022-09-16T10:58:30;11.95;;;6.80;;
71395;SDS011;59888;55.814;37.132;2022-09-16T11:03:49;11.30;;;6.80;;
71395;SDS011;59888;55.814;37.132;2022-09-16T11:09:04;11.57;;;7.13;;
71395;SDS011;59888;55.814;37.132;2022-09-16T11:11:37;14.50;;;7.38;;
71395;SDS011;59888;55.814;37.132;2022-09-16T11:27:57;13.73;;;7.45;;
71395;SDS011;59888;55.814;37.132;2022-09-16T11:30:25;12.40;;;7.93;;
71395;SDS011;59888;55.814;37.132;2022-09-16T11:36:02;11.55;;;6.95;;
71395;SDS011;59888;55.814;37.132;2022-09-16T11:51:55;21.50;;;10.88;;
71395;SDS011;59888;55.814;37.132;2022-09-16T11:54:48;23.85;;;13.52;;
71395;SDS011;59888;55.814;37.132;2022-09-16T11:57:38;23.13;;;12.77;;
71395;SDS011;59888;55.814;37.132;2022-09-16T12:00:11;22.05;;;12.20;;
71395;SDS011;59888;55.814;37.132;2022-09-16T12:02:46;19.58;;;11.48;;
71395;SDS011;59888;55.814;37.132;2022-09-16T12:10:49;14.68;;;9.48;;
71395;SDS011;59888;55.814;37.132;2022-09-16T12:13:24;14.85;;;8.82;;
71395;SDS011;59888;55.814;37.132;2022-09-16T12:15:54;10.60;;;8.07;;
71395;SDS011;59888;55.814;37.132;2022-09-16T12:18:25;10.80;;;7.60;;
71395;SDS011;59888;55.814;37.132;2022-09-16T12:26:50;28.05;;;14.20;;
71395;SDS011;59888;55.814;37.132;2022-09-16T12:32:47;31.02;;;18.25;;
71395;SDS011;59888;55.814;37.132;2022-09-16T12:35:21;20.00;;;11.52;;
71395;SDS011;59888;55.814;37.132;2022-09-16T12:37:53;13.95;;;9.10;;
71395;SDS011;59888;55.814;37.132;2022-09-16T12:40:26;14.45;;;8.43;;
71395;SDS011;59888;55.814;37.132;2022-09-16T12:54:12;14.98;;;10.50;;
71395;SDS011;59888;55.814;37.132;2022-09-16T13:02:46;14.82;;;9.93;;
71395;SDS011;59888;55.814;37.132;2022-09-16T13:05:34;15.27;;;10.27;;
71395;SDS011;59888;55.814;37.132;2022-09-16T13:08:07;16.17;;;9.93;;
71395;SDS011;59888;55.814;37.132;2022-09-16T13:10:43;14.52;;;10.00;;
71395;SDS011;59888;55.814;37.132;2022-09-16T13:13:19;13.77;;;9.35;;
71395;SDS011;59888;55.814;37.132;2022-09-16T13:15:59;17.42;;;10.15;;
71395;SDS011;59888;55.814;37.132;2022-09-16T13:18:37;14.65;;;10.60;;
71395;SDS011;59888;55.814;37.132;2022-09-16T13:21:39;14.77;;;9.77;;
71395;SDS011;59888;55.814;37.132;2022-09-16T13:24:24;15.57;;;9.55;;
71395;SDS011;59888;55.814;37.132;2022-09-16T13:26:59;15.13;;;9.98;;
71395;SDS011;59888;55.814;37.132;2022-09-16T13:29:46;16.55;;;10.70;;
71395;SDS011;59888;55.814;37.132;2022-09-16T13:37:44;17.65;;;10.85;;
71395;SDS011;59888;55.814;37.132;2022-09-16T13:40:18;15.48;;;10.15;;
71395;SDS011;59888;55.814;37.132;2022-09-16T13:42:48;14.10;;;9.50;;
71395;SDS011;59888;55.814;37.132;2022-09-16T13:48:04;16.08;;;10.60;;
71395;SDS011;59888;55.814;37.132;2022-09-16T13:50:41;14.73;;;9.70;;
71395;SDS011;59888;55.814;37.132;2022-09-16T13:53:25;14.68;;;9.52;;
71395;SDS011;59888;55.814;37.132;2022-09-16T13:56:05;14.05;;;9.25;;
71395;SDS011;59888;55.814;37.132;2022-09-16T13:58:36;14.15;;;8.95;;
71395;SDS011;59888;55.814;37.132;2022-09-16T14:01:17;14.23;;;9.18;;
71395;SDS011;59888;55.814;37.132;2022-09-16T14:08:57;14.43;;;10.18;;
71395;SDS011;59888;55.814;37.132;2022-09-16T14:11:31;13.95;;;9.18;;
71395;SDS011;59888;55.814;37.132;2022-09-16T14:14:10;13.85;;;9.57;;
71395;SDS011;59888;55.814;37.132;2022-09-16T14:21:45;12.88;;;8.25;;
71395;SDS011;59888;55.814;37.132;2022-09-16T14:24:19;10.93;;;7.97;;
71395;SDS011;59888;55.814;37.132;2022-09-16T14:26:51;13.35;;;8.13;;
71395;SDS011;59888;55.814;37.132;2022-09-16T14:29:18;12.27;;;8.27;;
71395;SDS011;59888;55.814;37.132;2022-09-16T14:31:45;12.70;;;7.90;;
71395;SDS011;59888;55.814;37.132;2022-09-16T14:34:19;10.93;;;7.10;;
71395;SDS011;59888;55.814;37.132;2022-09-16T14:36:50;10.00;;;7.03;;
71395;SDS011;59888;55.814;37.132;2022-09-16T14:39:18;10.38;;;6.80;;
71395;SDS011;59888;55.814;37.132;2022-09-16T14:41:50;10.98;;;6.78;;
71395;SDS011;59888;55.814;37.132;2022-09-16T14:44:22;13.68;;;7.63;;
71395;SDS011;59888;55.814;37.132;2022-09-16T14:46:57;10.30;;;6.78;;
71395;SDS011;59888;55.814;37.132;2022-09-16T14:49:27;13.47;;;7.83;;
71395;SDS011;59888;55.814;37.132;2022-09-16T14:51:57;11.32;;;7.20;;
71395;SDS011;59888;55.814;37.132;2022-09-16T14:54:27;13.65;;;7.40;;
71395;SDS011;59888;55.814;37.132;2022-09-16T14:56:54;11.45;;;6.10;;
71395;SDS011;59888;55.814;37.132;2022-09-16T14:59:38;11.43;;;6.53;;
71395;SDS011;59888;55.814;37.132;2022-09-16T15:02:07;10.02;;;6.57;;
71395;SDS011;59888;55.814;37.132;2022-09-16T15:04:38;10.35;;;6.68;;
71395;SDS011;59888;55.814;37.132;2022-09-16T15:07:09;14.40;;;7.10;;
71395;SDS011;59888;55.814;37.132;2022-09-16T15:09:53;10.48;;;6.75;;
71395;SDS011;59888;55.814;37.132;2022-09-16T15:12:45;10.27;;;7.10;;
71395;SDS011;59888;55.814;37.132;2022-09-16T15:16:18;9.87;;;6.80;;
71395;SDS011;59888;55.814;37.132;2022-09-16T15:18:31;11.45;;;6.82;;
71395;SDS011;59888;55.814;37.132;2022-09-16T15:21:06;12.68;;;6.85;;
71395;SDS011;59888;55.814;37.132;2022-09-16T15:23:37;10.43;;;6.90;;
71395;SDS011;59888;55.814;37.132;2022-09-16T15:26:11;10.65;;;7.05;;
71395;SDS011;59888;55.814;37.132;2022-09-16T15:28:59;11.13;;;7.10;;
71395;SDS011;59888;55.814;37.132;2022-09-16T15:31:31;11.07;;;6.65;;
71395;SDS011;59888;55.814;37.132;2022-09-16T15:34:04;12.77;;;7.35;;
71395;SDS011;59888;55.814;37.132;2022-09-16T15:36:46;11.02;;;7.85;;
71395;SDS011;59888;55.814;37.132;2022-09-16T15:39:20;13.15;;;8.02;;
71395;SDS011;59888;55.814;37.132;2022-09-16T15:47:19;12.40;;;8.50;;
71395;SDS011;59888;55.814;37.132;2022-09-16T15:49:46;13.98;;;8.63;;
71395;SDS011;59888;55.814;37.132;2022-09-16T15:52:20;11.40;;;8.27;;
71395;SDS011;59888;55.814;37.132;2022-09-16T16:00:04;12.18;;;7.45;;
71395;SDS011;59888;55.814;37.132;2022-09-16T16:02:51;12.70;;;9.07;;
71395;SDS011;59888;55.814;37.132;2022-09-16T16:05:24;10.90;;;8.82;;
71395;SDS011;59888;55.814;37.132;2022-09-16T16:07:55;12.27;;;9.00;;
71395;SDS011;59888;55.814;37.132;2022-09-16T16:10:24;12.25;;;8.63;;
71395;SDS011;59888;55.814;37.132;2022-09-16T16:15:28;12.25;;;7.78;;
71395;SDS011;59888;55.814;37.132;2022-09-16T16:17:58;10.98;;;7.78;;
71395;SDS011;59888;55.814;37.132;2022-09-16T16:20:27;11.63;;;7.85;;
71395;SDS011;59888;55.814;37.132;2022-09-16T16:22:57;11.70;;;8.10;;
71395;SDS011;59888;55.814;37.132;2022-09-16T16:25:22;10.68;;;7.43;;
71395;SDS011;59888;55.814;37.132;2022-09-16T16:27:48;13.00;;;8.48;;
71395;SDS011;59888;55.814;37.132;2022-09-16T16:30:14;11.73;;;7.15;;
71395;SDS011;59888;55.814;37.132;2022-09-16T16:32:40;11.80;;;8.13;;
71395;SDS011;59888;55.814;37.132;2022-09-16T16:35:06;12.30;;;8.25;;
71395;SDS011;59888;55.814;37.132;2022-09-16T16:37:32;12.73;;;8.55;;
71395;SDS011;59888;55.814;37.132;2022-09-16T16:39:58;15.52;;;9.50;;
71395;SDS011;59888;55.814;37.132;2022-09-16T16:42:25;14.73;;;9.05;;
71395;SDS011;59888;55.814;37.132;2022-09-16T16:44:52;13.30;;;9.05;;
71395;SDS011;59888;55.814;37.132;2022-09-16T16:47:18;13.88;;;9.10;;
71395;SDS011;59888;55.814;37.132;2022-09-16T16:49:44;13.55;;;9.50;;
71395;SDS011;59888;55.814;37.132;2022-09-16T16:52:10;14.20;;;9.38;;
71395;SDS011;59888;55.814;37.132;2022-09-16T16:54:36;15.57;;;10.63;;
71395;SDS011;59888;55.814;37.132;2022-09-16T16:57:02;18.02;;;11.77;;
71395;SDS011;59888;55.814;37.132;2022-09-16T16:59:28;19.02;;;12.00;;
71395;SDS011;59888;55.814;37.132;2022-09-16T17:01:55;19.70;;;12.07;;
71395;SDS011;59888;55.814;37.132;2022-09-16T17:04:22;17.00;;;11.45;;
71395;SDS011;59888;55.814;37.132;2022-09-16T17:06:49;18.73;;;11.95;;
71395;SDS011;59888;55.814;37.132;2022-09-16T17:09:14;18.20;;;11.43;;
71395;SDS011;59888;55.814;37.132;2022-09-16T17:11:57;14.50;;;10.38;;
71395;SDS011;59888;55.814;37.132;2022-09-16T17:14:25;17.88;;;10.50;;
71395;SDS011;59888;55.814;37.132;2022-09-16T17:16:54;18.75;;;10.93;;
71395;SDS011;59888;55.814;37.132;2022-09-16T17:19:21;14.88;;;9.82;;
71395;SDS011;59888;55.814;37.132;2022-09-16T17:21:48;14.68;;;10.27;;
71395;SDS011;59888;55.814;37.132;2022-09-16T17:24:16;15.10;;;10.38;;
71395;SDS011;59888;55.814;37.132;2022-09-16T17:26:42;14.95;;;10.25;;
71395;SDS011;59888;55.814;37.132;2022-09-16T17:29:09;14.88;;;10.13;;
71395;SDS011;59888;55.814;37.132;2022-09-16T17:31:35;14.35;;;9.55;;
71395;SDS011;59888;55.814;37.132;2022-09-16T17:34:06;17.10;;;10.57;;
71395;SDS011;59888;55.814;37.132;2022-09-16T17:36:35;14.07;;;9.38;;
71395;SDS011;59888;55.814;37.132;2022-09-16T17:39:06;14.27;;;9.48;;
71395;SDS011;59888;55.814;37.132;2022-09-16T17:41:35;13.85;;;9.90;;
71395;SDS011;59888;55.814;37.132;2022-09-16T17:44:05;17.20;;;10.40;;
71395;SDS011;59888;55.814;37.132;2022-09-16T17:46:32;14.75;;;10.15;;
71395;SDS011;59888;55.814;37.132;2022-09-16T17:49:03;15.85;;;10.88;;
71395;SDS011;59888;55.814;37.132;2022-09-16T17:51:32;18.65;;;11.25;;
71395;SDS011;59888;55.814;37.132;2022-09-16T17:53:59;17.02;;;11.23;;
71395;SDS011;59888;55.814;37.132;2022-09-16T17:56:27;15.88;;;10.57;;
71395;SDS011;59888;55.814;37.132;2022-09-16T17:58:53;17.05;;;10.27;;
71395;SDS011;59888;55.814;37.132;2022-09-16T18:01:20;15.80;;;10.43;;
71395;SDS011;59888;55.814;37.132;2022-09-16T18:03:49;17.63;;;10.20;;
71395;SDS011;59888;55.814;37.132;2022-09-16T18:06:33;17.30;;;11.18;;
71395;SDS011;59888;55.814;37.132;2022-09-16T18:09:04;15.60;;;10.52;;
71395;SDS011;59888;55.814;37.132;2022-09-16T18:11:31;19.60;;;11.43;;
71395;SDS011;59888;55.814;37.132;2022-09-16T18:14:00;15.88;;;11.18;;